Terminal Aerodrome Forecast
Issued by NWS

Home | Current Version | Previous Version | Text Only | Print | Product List | Glossary On
Versions: 1 2 3 4 5 6 7 8 9 10 11 12 13 14 15 16 17 18 19 20 21 22 23 24 25 26 27 28 29 30 31
000
FTUS45 KABQ 271100 RRA
TAFSAF
TAF
KSAF 271143Z 2712/2812 15013KT P6SM BKN025 OVC040
     FM271500 15013G21KT P6SM OVC025
     FM272100 16012KT P6SM VCSH OVC025
     FM272300 13010KT 4SM -SN SCT009 OVC020
     FM280200 13010KT 2SM -SN BR BKN007 OVC019=

USA.gov is the U.S. government's official web portal to all federal, state and local government web resources and services.